Time,TemperatureF,DewpointF,PressureIn,WindDirection,WindDirectionDegrees,WindSpeedMPH,WindSpeedGustMPH,Humidity,HourlyPrecipIn,Conditions,Clouds,dailyrainin,SoftwareType,DateUTC
2013-06-25 00:22:00,75.0,73.0,30.14,ESE,107,0.0,0.0,94,0.00,,,0.00,,2013-06-25 04:22:00,
2013-06-25 01:44:00,74.0,72.0,30.13,ESE,107,0.0,0.0,95,0.00,,,0.00,,2013-06-25 05:44:00,
2013-06-25 01:52:00,74.0,72.0,30.13,ESE,107,0.0,0.0,95,0.00,,,0.00,,2013-06-25 05:52:00,
2013-06-25 02:01:00,74.0,73.0,30.13,ESE,107,0.0,0.0,96,0.00,,,0.00,,2013-06-25 06:01:00,
2013-06-25 02:43:00,73.0,72.0,30.11,ESE,107,0.0,0.0,96,0.00,,,0.00,,2013-06-25 06:43:00,
2013-06-25 02:52:00,73.0,72.0,30.11,ESE,107,0.0,0.0,96,0.00,,,0.00,,2013-06-25 06:52:00,
2013-06-25 03:02:00,73.0,72.0,30.10,ESE,107,0.0,0.0,96,0.00,,,0.00,,2013-06-25 07:02:00,
2013-06-25 03:33:00,73.0,72.0,30.09,ESE,107,0.0,0.0,96,0.00,,,0.00,,2013-06-25 07:33:00,
2013-06-25 03:52:00,73.0,72.0,30.09,ESE,107,0.0,0.0,97,0.00,,,0.00,,2013-06-25 07:52:00,
2013-06-25 04:53:00,72.0,71.0,30.07,ESE,107,0.0,0.0,97,0.00,,,0.00,,2013-06-25 08:53:00,
2013-06-25 05:43:00,71.0,70.0,30.06,ESE,107,0.0,0.0,97,0.00,,,0.00,,2013-06-25 09:43:00,
2013-06-25 06:42:00,71.0,70.0,30.07,ESE,107,0.0,0.0,97,0.00,,,0.00,,2013-06-25 10:42:00,
2013-06-25 06:52:00,71.0,70.0,30.08,ESE,107,0.0,0.0,97,0.00,,,0.00,,2013-06-25 10:52:00,
2013-06-25 10:01:00,84.0,76.0,30.11,SE,125,0.0,1.0,77,0.00,,,0.00,,2013-06-25 14:01:00,
2013-06-25 10:34:00,84.0,74.0,30.12,East,91,4.0,7.0,73,0.00,,,0.00,,2013-06-25 14:34:00,
2013-06-25 11:44:00,85.0,73.0,30.13,East,83,1.0,6.0,68,0.00,,,0.00,,2013-06-25 15:44:00,
2013-06-25 13:44:00,86.0,74.0,30.10,ENE,69,2.0,10.0,68,0.00,,,0.00,,2013-06-25 17:44:00,
2013-06-25 13:53:00,86.0,75.0,30.11,ENE,71,5.0,10.0,69,0.00,,,0.00,,2013-06-25 17:53:00,
2013-06-25 15:44:00,86.0,75.0,30.07,East,84,5.0,10.0,70,0.00,,,0.00,,2013-06-25 19:44:00,
2013-06-25 17:43:00,84.0,76.0,30.03,ENE,64,5.0,12.0,78,0.00,,,0.00,,2013-06-25 21:43:00,
2013-06-25 17:53:00,83.0,76.0,30.03,SE,129,5.0,12.0,79,0.00,,,0.00,,2013-06-25 21:53:00,
2013-06-25 19:34:00,82.0,75.0,30.05,ESE,103,1.0,5.0,80,0.00,,,0.00,,2013-06-25 23:34:00,
2013-06-25 19:44:00,82.0,74.0,30.05,ENE,78,1.0,5.0,77,0.00,,,0.00,,2013-06-25 23:44:00,
2013-06-25 19:52:00,82.0,75.0,30.05,East,92,3.0,6.0,79,0.00,,,0.00,,2013-06-25 23:52:00,
2013-06-25 20:02:00,82.0,75.0,30.05,ESE,109,4.0,6.0,79,0.00,,,0.00,,2013-06-26 00:02:00,
2013-06-25 20:11:00,81.0,75.0,30.06,East,94,2.0,3.0,81,0.00,,,0.00,,2013-06-26 00:11:00,
2013-06-25 20:22:00,81.0,75.0,30.06,East,98,2.0,3.0,82,0.00,,,0.00,,2013-06-26 00:22:00,
2013-06-25 20:33:00,81.0,76.0,30.06,East,90,0.0,0.0,84,0.00,,,0.00,,2013-06-26 00:33:00,
2013-06-25 20:42:00,80.0,75.0,30.06,ESE,109,1.0,3.0,84,0.00,,,0.00,,2013-06-26 00:42:00,
2013-06-25 20:52:00,80.0,75.0,30.06,ESE,102,1.0,3.0,85,0.00,,,0.00,,2013-06-26 00:52:00,
2013-06-25 21:01:00,80.0,75.0,30.06,East,96,1.0,3.0,86,0.00,,,0.00,,2013-06-26 01:01:00,
2013-06-25 21:11:00,79.0,75.0,30.06,East,81,1.0,3.0,87,0.00,,,0.00,,2013-06-26 01:11:00,
2013-06-25 21:22:00,79.0,75.0,30.06,East,81,0.0,0.0,87,0.00,,,0.00,,2013-06-26 01:22:00,
2013-06-25 21:33:00,79.0,75.0,30.06,East,81,0.0,0.0,88,0.00,,,0.00,,2013-06-26 01:33:00,
2013-06-25 22:02:00,78.0,75.0,30.07,East,81,0.0,0.0,90,0.00,,,0.00,,2013-06-26 02:02:00,
2013-06-25 22:43:00,77.0,74.0,30.06,East,81,0.0,0.0,92,0.00,,,0.00,,2013-06-26 02:43:00,
2013-06-25 23:02:00,77.0,75.0,30.07,East,84,0.0,0.0,93,0.00,,,0.00,,2013-06-26 03:02:00,
2013-06-25 23:43:00,76.0,74.0,30.08,East,84,0.0,0.0,94,0.00,,,0.00,,2013-06-26 03:43:00,